Time;durP1;ratioP1;P1;durP2;ratioP2;P2;SDS_P1;SDS_P2;PMS_P1;PMS_P2;Temp;Humidity;BMP_temperature;BMP_pressure;BME280_temperature;BME280_humidity;BME280_pressure;Samples;Min_cycle;Max_cycle;Signal;HPM_P1;HPM_P2
2024/02/03 00:02:23;;;;;;;4.72;1.30;;;;;;;;;;5126688;27;20035;-75
2024/02/03 00:04:53;;;;;;;8.30;1.55;;;;;;;;;;5126231;27;20035;-78
2024/02/03 00:07:24;;;;;;;2.97;1.33;;;;;;;;;;5124375;27;20047;-74
2024/02/03 00:09:57;;;;;;;9.88;1.40;;;;;;;;;;5126256;27;20591;-74
2024/02/03 00:12:28;;;;;;;2.75;1.40;;;;;;;;;;5108106;27;20051;-75
2024/02/03 00:14:59;;;;;;;3.80;1.80;;;;;;;;;;5126557;27;20370;-74
2024/02/03 00:17:29;;;;;;;3.50;1.35;;;;;;;;;;5126091;27;20537;-74
2024/02/03 00:20:01;;;;;;;8.68;2.47;;;;;;;;;;5126229;27;20060;-74
2024/02/03 00:22:32;;;;;;;7.93;1.75;;;;;;;;;;5125893;27;20520;-76
2024/02/03 00:25:03;;;;;;;5.68;1.40;;;;;;;;;;5126098;27;20516;-74
2024/02/03 00:27:33;;;;;;;7.25;1.50;;;;;;;;;;5125334;27;20050;-74
2024/02/03 00:30:05;;;;;;;7.10;1.45;;;;;;;;;;5125603;27;20572;-74
2024/02/03 00:32:35;;;;;;;14.18;1.83;;;;;;;;;;5126621;27;20087;-74
2024/02/03 00:35:06;;;;;;;3.60;1.52;;;;;;;;;;5126095;27;20050;-74
2024/02/03 00:37:36;;;;;;;5.32;2.22;;;;;;;;;;5124589;27;20043;-72
2024/02/03 00:40:08;;;;;;;3.00;1.40;;;;;;;;;;5125105;27;20059;-74
2024/02/03 00:42:39;;;;;;;5.60;1.30;;;;;;;;;;5124189;27;20509;-74
2024/02/03 00:45:09;;;;;;;5.68;1.65;;;;;;;;;;5122538;27;20051;-74
2024/02/03 00:47:39;;;;;;;2.00;1.13;;;;;;;;;;5125607;27;20047;-74
2024/02/03 00:50:16;;;;;;;3.85;1.15;;;;;;;;;;5125522;27;20046;-75
2024/02/03 00:52:48;;;;;;;4.43;1.38;;;;;;;;;;5125348;27;20043;-75
2024/02/03 00:55:18;;;;;;;2.47;1.30;;;;;;;;;;5124669;27;20043;-74
2024/02/03 00:57:50;;;;;;;5.53;1.63;;;;;;;;;;5124611;27;20043;-74
2024/02/03 01:00:23;;;;;;;2.92;1.30;;;;;;;;;;5124832;27;20078;-74
2024/02/03 01:02:55;;;;;;;4.15;1.25;;;;;;;;;;5125119;27;20043;-74
2024/02/03 01:05:26;;;;;;;7.57;2.20;;;;;;;;;;5125024;27;20047;-74
2024/02/03 01:07:57;;;;;;;4.15;1.50;;;;;;;;;;5125941;27;20039;-73
2024/02/03 01:10:27;;;;;;;7.75;1.40;;;;;;;;;;5125774;27;20050;-74
2024/02/03 01:12:58;;;;;;;7.32;1.58;;;;;;;;;;5125248;27;20054;-74
2024/02/03 01:15:29;;;;;;;6.28;1.83;;;;;;;;;;5124550;27;20054;-74
2024/02/03 01:17:59;;;;;;;2.72;1.20;;;;;;;;;;5125349;27;20039;-74
2024/02/03 01:20:30;;;;;;;7.93;1.48;;;;;;;;;;5124812;27;20039;-73
2024/02/03 01:23:02;;;;;;;10.30;2.15;;;;;;;;;;5124620;27;20405;-74
2024/02/03 01:25:33;;;;;;;8.68;1.83;;;;;;;;;;5125259;27;20589;-74
2024/02/03 01:28:03;;;;;;;15.10;1.75;;;;;;;;;;5124779;27;20054;-74
2024/02/03 01:30:33;;;;;;;12.93;1.95;;;;;;;;;;5124339;27;20443;-74
2024/02/03 01:33:05;;;;;;;11.50;1.98;;;;;;;;;;5124629;27;20058;-74
2024/02/03 01:35:36;;;;;;;10.23;1.70;;;;;;;;;;5124723;27;20047;-74
2024/02/03 01:38:07;;;;;;;13.43;1.70;;;;;;;;;;5125050;27;20043;-74
2024/02/03 01:40:38;;;;;;;18.77;2.38;;;;;;;;;;5124320;27;20058;-74
2024/02/03 01:43:13;;;;;;;12.48;1.77;;;;;;;;;;5124911;27;20047;-74
2024/02/03 01:45:45;;;;;;;8.27;1.77;;;;;;;;;;5124927;27;20050;-74
2024/02/03 01:48:17;;;;;;;9.63;1.70;;;;;;;;;;5122318;27;20066;-77
2024/02/03 01:50:50;;;;;;;4.45;1.42;;;;;;;;;;5125016;27;20050;-74
2024/02/03 01:53:21;;;;;;;4.32;1.20;;;;;;;;;;5124194;27;20059;-74
2024/02/03 01:55:53;;;;;;;2.90;1.20;;;;;;;;;;5124920;27;20055;-73
2024/02/03 01:58:25;;;;;;;3.20;1.60;;;;;;;;;;5124814;27;20069;-74
2024/02/03 02:00:56;;;;;;;5.78;1.50;;;;;;;;;;5124341;27;20391;-74
2024/02/03 02:03:26;;;;;;;3.45;1.05;;;;;;;;;;5124629;27;20572;-74
2024/02/03 02:05:58;;;;;;;3.35;1.30;;;;;;;;;;5124689;27;20044;-74
2024/02/03 02:08:36;;;;;;;7.05;1.25;;;;;;;;;;5124465;27;20050;-73
2024/02/03 02:11:07;;;;;;;9.65;1.30;;;;;;;;;;5124352;27;20050;-74
2024/02/03 02:13:38;;;;;;;4.47;1.33;;;;;;;;;;5123833;27;20047;-74
2024/02/03 02:16:08;;;;;;;6.65;1.40;;;;;;;;;;5124236;27;20047;-75
2024/02/03 02:18:40;;;;;;;7.13;1.42;;;;;;;;;;5124032;27;20073;-77
2024/02/03 02:21:11;;;;;;;3.92;1.50;;;;;;;;;;5124059;27;20051;-73
2024/02/03 02:23:41;;;;;;;8.55;1.40;;;;;;;;;;5123631;27;20047;-74
2024/02/03 02:26:12;;;;;;;5.65;1.90;;;;;;;;;;5124586;27;20405;-74
2024/02/03 02:28:43;;;;;;;7.32;1.90;;;;;;;;;;5122207;27;20641;-73
2024/02/03 02:31:14;;;;;;;11.68;1.90;;;;;;;;;;5123573;27;20402;-74
2024/02/03 02:33:44;;;;;;;5.03;1.40;;;;;;;;;;5122109;27;20084;-73
2024/02/03 02:36:15;;;;;;;7.82;1.67;;;;;;;;;;5123330;27;20062;-73
2024/02/03 02:38:45;;;;;;;6.40;1.85;;;;;;;;;;5123702;27;20051;-73
2024/02/03 02:41:16;;;;;;;7.40;1.95;;;;;;;;;;5123526;27;20047;-73
2024/02/03 02:43:46;;;;;;;2.65;1.60;;;;;;;;;;5123161;27;20042;-73
2024/02/03 02:46:21;;;;;;;6.22;1.85;;;;;;;;;;5123273;27;20035;-74
2024/02/03 02:48:54;;;;;;;4.25;1.65;;;;;;;;;;5123467;27;20043;-73
2024/02/03 02:51:28;;;;;;;5.00;2.40;;;;;;;;;;5123820;27;20043;-73
2024/02/03 02:53:58;;;;;;;7.20;1.80;;;;;;;;;;5123462;27;20039;-73
2024/02/03 02:56:28;;;;;;;7.10;2.22;;;;;;;;;;5123838;27;20421;-73
2024/02/03 02:58:59;;;;;;;5.05;2.10;;;;;;;;;;5123647;27;20398;-73
2024/02/03 03:01:29;;;;;;;5.95;2.20;;;;;;;;;;5123535;27;20058;-74
2024/02/03 03:04:01;;;;;;;2.97;1.98;;;;;;;;;;5123191;27;20050;-74
2024/02/03 03:06:33;;;;;;;5.50;2.17;;;;;;;;;;5123371;27;20949;-74
2024/02/03 03:09:03;;;;;;;5.97;2.42;;;;;;;;;;5122887;27;20611;-74
2024/02/03 03:11:36;;;;;;;8.07;1.98;;;;;;;;;;5123538;27;20051;-74
2024/02/03 03:14:07;;;;;;;6.05;2.10;;;;;;;;;;5123403;27;20051;-74
2024/02/03 03:16:38;;;;;;;2.85;1.70;;;;;;;;;;5122902;27;20054;-74
2024/02/03 03:19:08;;;;;;;3.90;2.30;;;;;;;;;;5122851;27;20046;-74
2024/02/03 03:21:39;;;;;;;4.25;2.55;;;;;;;;;;5123069;27;20054;-75
2024/02/03 03:24:09;;;;;;;4.60;2.42;;;;;;;;;;5122484;28;20051;-74
2024/02/03 03:26:44;;;;;;;3.15;1.95;;;;;;;;;;5122896;28;20035;-74
2024/02/03 03:29:14;;;;;;;6.10;2.20;;;;;;;;;;5122893;27;20043;-74
2024/02/03 03:31:45;;;;;;;9.43;2.47;;;;;;;;;;5123452;27;20051;-74
2024/02/03 03:34:16;;;;;;;7.57;2.22;;;;;;;;;;5122554;28;20074;-74
2024/02/03 03:36:48;;;;;;;5.60;2.35;;;;;;;;;;5122636;28;20054;-74
2024/02/03 03:39:19;;;;;;;3.70;2.20;;;;;;;;;;5122098;27;20043;-74
2024/02/03 03:41:49;;;;;;;5.25;2.17;;;;;;;;;;5122610;28;20062;-73
2024/02/03 03:44:19;;;;;;;5.10;2.47;;;;;;;;;;5121208;28;20046;-74
2024/02/03 03:46:50;;;;;;;4.20;2.20;;;;;;;;;;5122545;28;20081;-74
2024/02/03 03:49:20;;;;;;;5.47;2.22;;;;;;;;;;5120777;28;20513;-74
2024/02/03 03:51:52;;;;;;;8.40;2.60;;;;;;;;;;5122231;28;20047;-75
2024/02/03 03:54:22;;;;;;;5.15;2.70;;;;;;;;;;5122597;27;20090;-72
2024/02/03 03:56:52;;;;;;;6.45;3.25;;;;;;;;;;5122878;28;20047;-72
2024/02/03 03:59:24;;;;;;;8.18;2.42;;;;;;;;;;5122930;28;20036;-73
2024/02/03 04:01:55;;;;;;;6.22;3.10;;;;;;;;;;5123361;27;20047;-72
2024/02/03 04:04:24;;;;;;;5.65;3.33;;;;;;;;;;5122473;28;20043;-73
2024/02/03 04:06:55;;;;;;;5.82;2.30;;;;;;;;;;5122774;28;20516;-73
2024/02/03 04:09:26;;;;;;;6.18;2.90;;;;;;;;;;5122523;27;20417;-72
2024/02/03 04:11:57;;;;;;;5.47;2.70;;;;;;;;;;5123564;27;20043;-73
2024/02/03 04:14:28;;;;;;;6.43;3.42;;;;;;;;;;5126221;27;20394;-73
2024/02/03 04:16:58;;;;;;;4.75;2.75;;;;;;;;;;5126401;27;20039;-72
2024/02/03 04:19:29;;;;;;;6.28;2.95;;;;;;;;;;5126505;27;20513;-73
2024/02/03 04:21:59;;;;;;;8.00;3.60;;;;;;;;;;5126278;27;20047;-72
2024/02/03 04:24:30;;;;;;;4.07;2.90;;;;;;;;;;5125681;27;20502;-73
2024/02/03 04:27:00;;;;;;;3.58;2.90;;;;;;;;;;5125738;27;20051;-74
2024/02/03 04:29:30;;;;;;;7.47;3.50;;;;;;;;;;5125759;27;20054;-74
2024/02/03 04:32:01;;;;;;;7.25;3.28;;;;;;;;;;5126337;27;20046;-74
2024/02/03 04:34:32;;;;;;;6.88;3.58;;;;;;;;;;5126097;27;20071;-73
2024/02/03 04:37:02;;;;;;;5.72;3.60;;;;;;;;;;5126196;27;20039;-73
2024/02/03 04:39:33;;;;;;;11.95;3.60;;;;;;;;;;5124685;27;20623;-74
2024/02/03 04:42:06;;;;;;;4.55;3.38;;;;;;;;;;5125881;27;20516;-76
2024/02/03 04:44:36;;;;;;;7.50;3.17;;;;;;;;;;5126139;27;20039;-74
2024/02/03 04:47:06;;;;;;;5.07;3.72;;;;;;;;;;5124420;27;20051;-74
2024/02/03 04:49:37;;;;;;;8.60;3.90;;;;;;;;;;5126096;27;20047;-74
2024/02/03 04:52:10;;;;;;;8.35;3.90;;;;;;;;;;5125816;27;20703;-73
2024/02/03 04:54:41;;;;;;;7.00;4.32;;;;;;;;;;5125230;27;20054;-74
2024/02/03 04:57:12;;;;;;;6.75;4.40;;;;;;;;;;5125186;27;20043;-74
2024/02/03 04:59:42;;;;;;;4.93;3.45;;;;;;;;;;5125464;27;20039;-74
2024/02/03 05:02:12;;;;;;;6.18;3.58;;;;;;;;;;5125659;27;20501;-74
2024/02/03 05:04:43;;;;;;;8.40;3.80;;;;;;;;;;5124847;27;20410;-74
2024/02/03 05:07:14;;;;;;;7.20;3.78;;;;;;;;;;5123148;27;20059;-74
2024/02/03 05:09:44;;;;;;;8.85;3.67;;;;;;;;;;5125751;27;20067;-75
2024/02/03 05:12:15;;;;;;;7.57;3.67;;;;;;;;;;5125263;27;20042;-74
2024/02/03 05:14:46;;;;;;;6.75;4.25;;;;;;;;;;5125031;27;20051;-75
2024/02/03 05:17:16;;;;;;;9.02;4.25;;;;;;;;;;5125268;27;20039;-74
2024/02/03 05:19:46;;;;;;;10.05;4.05;;;;;;;;;;5125485;27;20046;-74
2024/02/03 05:22:16;;;;;;;6.38;3.95;;;;;;;;;;5125379;27;20043;-74
2024/02/03 05:24:47;;;;;;;5.93;4.25;;;;;;;;;;5124531;27;20420;-74
2024/02/03 05:27:18;;;;;;;9.05;4.47;;;;;;;;;;5125095;27;20506;-74
2024/02/03 05:29:51;;;;;;;5.55;3.92;;;;;;;;;;5125474;27;20043;-74
2024/02/03 05:32:21;;;;;;;5.88;4.07;;;;;;;;;;5123555;27;20051;-74
2024/02/03 05:34:51;;;;;;;9.02;4.57;;;;;;;;;;5124703;27;20050;-74
2024/02/03 05:37:22;;;;;;;8.93;4.85;;;;;;;;;;5124579;27;20047;-74
2024/02/03 05:39:52;;;;;;;7.57;4.45;;;;;;;;;;5124013;27;20050;-75
2024/02/03 05:42:29;;;;;;;7.22;4.40;;;;;;;;;;5124750;27;20050;-75
2024/02/03 05:44:59;;;;;;;6.97;4.32;;;;;;;;;;5125126;27;20039;-75
2024/02/03 05:47:29;;;;;;;7.93;4.68;;;;;;;;;;5124205;27;20046;-75
2024/02/03 05:50:01;;;;;;;6.63;4.72;;;;;;;;;;5124772;27;20051;-74
2024/02/03 05:52:31;;;;;;;6.20;4.95;;;;;;;;;;5124732;27;20046;-74
2024/02/03 05:55:02;;;;;;;7.47;4.90;;;;;;;;;;5124146;27;20051;-73
2024/02/03 05:57:32;;;;;;;9.80;4.45;;;;;;;;;;5124643;27;20524;-74
2024/02/03 06:00:02;;;;;;;6.93;4.82;;;;;;;;;;5124945;27;20416;-74
2024/02/03 06:02:37;;;;;;;8.45;4.70;;;;;;;;;;5127160;27;20054;-73
2024/02/03 06:05:08;;;;;;;7.50;4.25;;;;;;;;;;5124607;27;20061;-75
2024/02/03 06:07:39;;;;;;;8.73;5.40;;;;;;;;;;5124270;27;20050;-73
2024/02/03 06:10:09;;;;;;;6.63;4.88;;;;;;;;;;5123779;27;20054;-73
2024/02/03 06:12:41;;;;;;;8.65;4.90;;;;;;;;;;5124100;27;20043;-74
2024/02/03 06:15:11;;;;;;;9.82;4.18;;;;;;;;;;5123886;27;20057;-74
2024/02/03 06:17:41;;;;;;;5.93;4.40;;;;;;;;;;5124482;27;20050;-74
2024/02/03 06:20:12;;;;;;;8.65;4.97;;;;;;;;;;5123962;27;20499;-74
2024/02/03 06:22:43;;;;;;;9.90;4.90;;;;;;;;;;5123701;27;20074;-74
2024/02/03 06:25:14;;;;;;;7.32;4.50;;;;;;;;;;5123701;27;20058;-74
2024/02/03 06:27:44;;;;;;;8.95;5.20;;;;;;;;;;5124178;27;20047;-73
2024/02/03 06:30:15;;;;;;;8.07;5.50;;;;;;;;;;5123468;27;20050;-74
2024/02/03 06:32:47;;;;;;;9.30;5.00;;;;;;;;;;5123955;27;20057;-74
2024/02/03 06:35:18;;;;;;;8.05;4.75;;;;;;;;;;5123324;27;20047;-74
2024/02/03 06:37:48;;;;;;;8.38;4.85;;;;;;;;;;5123620;27;20045;-73
2024/02/03 06:40:19;;;;;;;7.45;5.50;;;;;;;;;;5123471;27;20502;-74
2024/02/03 06:42:55;;;;;;;11.02;5.53;;;;;;;;;;5123214;27;20050;-73
2024/02/03 06:45:27;;;;;;;9.15;5.28;;;;;;;;;;5123299;27;20051;-74
2024/02/03 06:47:59;;;;;;;7.95;5.20;;;;;;;;;;5123403;27;20051;-73
2024/02/03 06:50:29;;;;;;;8.88;5.22;;;;;;;;;;5123212;27;20413;-73
2024/02/03 06:53:01;;;;;;;6.88;5.30;;;;;;;;;;5122959;27;20525;-73
2024/02/03 06:55:32;;;;;;;9.68;5.90;;;;;;;;;;5123080;27;20047;-74
2024/02/03 06:58:03;;;;;;;7.70;5.65;;;;;;;;;;5123012;27;20603;-73
2024/02/03 07:00:33;;;;;;;7.15;5.03;;;;;;;;;;5123286;27;20051;-74
2024/02/03 07:03:05;;;;;;;7.90;5.43;;;;;;;;;;5123284;27;20039;-73
2024/02/03 07:05:36;;;;;;;10.27;6.10;;;;;;;;;;5123694;27;20405;-74
2024/02/03 07:08:07;;;;;;;8.88;5.80;;;;;;;;;;5123730;27;20051;-74
2024/02/03 07:10:38;;;;;;;9.23;5.60;;;;;;;;;;5122814;27;20039;-73
2024/02/03 07:13:08;;;;;;;8.68;6.53;;;;;;;;;;5122945;27;20042;-74
2024/02/03 07:15:40;;;;;;;9.63;5.25;;;;;;;;;;5122789;27;20051;-73
2024/02/03 07:18:10;;;;;;;12.55;6.85;;;;;;;;;;5123564;27;20058;-74
2024/02/03 07:20:40;;;;;;;11.07;5.70;;;;;;;;;;5123300;27;20043;-73
2024/02/03 07:23:11;;;;;;;11.50;6.07;;;;;;;;;;5122954;27;20055;-74
2024/02/03 07:25:41;;;;;;;10.98;6.78;;;;;;;;;;5123176;28;20805;-73
2024/02/03 07:28:12;;;;;;;9.52;6.35;;;;;;;;;;5123055;28;20070;-73
2024/02/03 07:30:43;;;;;;;13.98;6.70;;;;;;;;;;5121524;27;20061;-73
2024/02/03 07:33:14;;;;;;;9.52;6.75;;;;;;;;;;5122711;28;20047;-74
2024/02/03 07:35:45;;;;;;;9.15;6.65;;;;;;;;;;5122584;27;20498;-73
2024/02/03 07:38:16;;;;;;;8.90;7.15;;;;;;;;;;5123101;27;20039;-73
2024/02/03 07:40:46;;;;;;;11.93;7.75;;;;;;;;;;5122756;28;20121;-73
2024/02/03 07:43:16;;;;;;;10.98;7.15;;;;;;;;;;5122320;28;20584;-74
2024/02/03 07:45:50;;;;;;;9.68;6.38;;;;;;;;;;5121037;27;20062;-73
2024/02/03 07:48:21;;;;;;;9.57;6.82;;;;;;;;;;5126633;27;20421;-74
2024/02/03 07:50:53;;;;;;;14.27;8.07;;;;;;;;;;5126578;27;20050;-73
2024/02/03 07:53:23;;;;;;;10.85;7.43;;;;;;;;;;5127129;27;20505;-73
2024/02/03 07:55:53;;;;;;;11.13;7.72;;;;;;;;;;5125660;27;20055;-73
2024/02/03 07:58:23;;;;;;;12.35;8.52;;;;;;;;;;5127275;27;20043;-73
2024/02/03 08:00:54;;;;;;;15.23;6.85;;;;;;;;;;5127055;27;20501;-72
2024/02/03 08:03:25;;;;;;;10.52;7.70;;;;;;;;;;5126516;27;20047;-73
2024/02/03 08:05:55;;;;;;;10.98;7.80;;;;;;;;;;5126219;27;20675;-73
2024/02/03 08:08:26;;;;;;;12.90;8.23;;;;;;;;;;5126671;27;20496;-73
2024/02/03 08:10:57;;;;;;;14.13;7.40;;;;;;;;;;5126695;27;20062;-73
2024/02/03 08:13:28;;;;;;;9.98;7.18;;;;;;;;;;5126844;27;20429;-73
2024/02/03 08:15:58;;;;;;;10.65;7.50;;;;;;;;;;5125778;27;20051;-73
2024/02/03 08:18:30;;;;;;;10.77;7.18;;;;;;;;;;5126892;27;20054;-73
2024/02/03 08:21:01;;;;;;;15.20;7.15;;;;;;;;;;5126582;27;20050;-73
2024/02/03 08:23:31;;;;;;;13.68;6.70;;;;;;;;;;5125476;27;20046;-73
2024/02/03 08:26:02;;;;;;;9.68;6.72;;;;;;;;;;5127078;27;20580;-73
2024/02/03 08:28:32;;;;;;;12.07;7.43;;;;;;;;;;5126420;27;20039;-73
2024/02/03 08:31:03;;;;;;;9.02;6.75;;;;;;;;;;5126848;27;20532;-74
2024/02/03 08:33:33;;;;;;;25.58;7.28;;;;;;;;;;5126045;27;20557;-74
2024/02/03 08:36:04;;;;;;;12.60;6.43;;;;;;;;;;5125951;27;20054;-74
2024/02/03 08:38:38;;;;;;;8.82;6.68;;;;;;;;;;5126712;27;20604;-73
2024/02/03 08:41:09;;;;;;;10.90;7.20;;;;;;;;;;5125900;27;20051;-78
2024/02/03 08:43:42;;;;;;;17.13;7.63;;;;;;;;;;5125471;27;20039;-73
2024/02/03 08:46:11;;;;;;;14.02;6.57;;;;;;;;;;5125678;27;20441;-74
2024/02/03 08:48:43;;;;;;;13.27;7.95;;;;;;;;;;5127019;27;20047;-74
2024/02/03 08:51:17;;;;;;;15.82;8.27;;;;;;;;;;5125468;27;20047;-74
2024/02/03 08:53:48;;;;;;;15.77;8.02;;;;;;;;;;5124260;27;20055;-73
2024/02/03 08:56:19;;;;;;;16.00;8.13;;;;;;;;;;5125177;27;20047;-73
2024/02/03 08:58:50;;;;;;;17.00;8.45;;;;;;;;;;5125613;27;20054;-73
2024/02/03 09:01:22;;;;;;;14.98;8.98;;;;;;;;;;5125418;27;20058;-73
2024/02/03 09:03:52;;;;;;;11.70;8.73;;;;;;;;;;5126229;27;20602;-73
2024/02/03 09:06:23;;;;;;;13.02;8.15;;;;;;;;;;5125543;27;20386;-73
2024/02/03 09:08:54;;;;;;;12.07;8.55;;;;;;;;;;5125027;27;20047;-73
2024/02/03 09:11:25;;;;;;;15.32;9.27;;;;;;;;;;5125076;27;20039;-73
2024/02/03 09:13:56;;;;;;;10.60;7.38;;;;;;;;;;5125302;27;20050;-74
2024/02/03 09:16:26;;;;;;;11.75;8.23;;;;;;;;;;5125545;27;20066;-78
2024/02/03 09:18:57;;;;;;;13.48;8.70;;;;;;;;;;5125339;27;20050;-73
2024/02/03 09:21:28;;;;;;;12.80;7.80;;;;;;;;;;5125811;27;20112;-73
2024/02/03 09:23:58;;;;;;;12.57;8.48;;;;;;;;;;5125383;27;20054;-73
2024/02/03 09:26:29;;;;;;;12.05;8.77;;;;;;;;;;5124755;27;20043;-73
2024/02/03 09:28:59;;;;;;;13.90;8.38;;;;;;;;;;5124453;27;20055;-74
2024/02/03 09:31:31;;;;;;;12.60;9.48;;;;;;;;;;5125321;27;20047;-73
2024/02/03 09:34:04;;;;;;;14.43;9.05;;;;;;;;;;5123112;27;20047;-74
2024/02/03 09:36:42;;;;;;;13.55;8.57;;;;;;;;;;5125132;27;20058;-78
2024/02/03 09:39:16;;;;;;;12.25;8.32;;;;;;;;;;5124511;27;20051;-73
2024/02/03 09:41:47;;;;;;;13.48;8.50;;;;;;;;;;5125328;27;20058;-73
2024/02/03 09:44:17;;;;;;;13.80;8.63;;;;;;;;;;5124459;27;20042;-74
2024/02/03 09:46:49;;;;;;;13.73;8.50;;;;;;;;;;5124566;27;20051;-73
2024/02/03 09:49:20;;;;;;;13.63;8.32;;;;;;;;;;5124720;27;20043;-74
2024/02/03 09:51:52;;;;;;;12.10;8.70;;;;;;;;;;5123680;27;20571;-74
2024/02/03 09:54:23;;;;;;;14.50;9.60;;;;;;;;;;5124653;27;20421;-73
2024/02/03 09:56:54;;;;;;;16.00;8.40;;;;;;;;;;5124935;27;20050;-73
2024/02/03 09:59:24;;;;;;;13.27;8.00;;;;;;;;;;5124482;27;20050;-74
2024/02/03 10:01:55;;;;;;;13.68;8.38;;;;;;;;;;5124106;27;20043;-73
2024/02/03 10:04:37;;;;;;;12.70;8.27;;;;;;;;;;5123859;27;20043;-73
2024/02/03 10:07:08;;;;;;;13.38;8.20;;;;;;;;;;5124238;27;20050;-73
2024/02/03 10:09:39;;;;;;;17.55;9.18;;;;;;;;;;5123927;27;20394;-74
2024/02/03 10:12:32;;;;;;;14.43;7.13;;;;;;;;;;5123917;27;20051;-74
2024/02/03 10:15:06;;;;;;;10.52;7.38;;;;;;;;;;5122742;27;20062;-73
2024/02/03 10:17:37;;;;;;;13.70;7.25;;;;;;;;;;5123081;27;20047;-73
2024/02/03 10:20:08;;;;;;;11.43;6.82;;;;;;;;;;5123389;27;20043;-73
2024/02/03 10:22:40;;;;;;;16.15;7.22;;;;;;;;;;5124024;27;20047;-73
2024/02/03 10:25:11;;;;;;;9.02;6.70;;;;;;;;;;5123665;27;20046;-74
2024/02/03 10:27:43;;;;;;;11.13;7.22;;;;;;;;;;5122729;27;20057;-73
2024/02/03 10:30:20;;;;;;;10.80;8.40;;;;;;;;;;5124600;27;20116;-73
2024/02/03 10:32:53;;;;;;;11.95;7.78;;;;;;;;;;5123420;27;20047;-73
2024/02/03 10:35:27;;;;;;;19.42;9.18;;;;;;;;;;5124475;27;20046;-76
2024/02/03 10:37:58;;;;;;;13.13;8.45;;;;;;;;;;5123939;27;20043;-73
2024/02/03 10:40:33;;;;;;;11.32;7.75;;;;;;;;;;5123007;27;20047;-73
2024/02/03 10:43:12;;;;;;;14.52;8.32;;;;;;;;;;5123421;27;20062;-74
2024/02/03 10:45:45;;;;;;;15.20;6.85;;;;;;;;;;5123525;27;20039;-73
2024/02/03 10:48:20;;;;;;;13.55;6.43;;;;;;;;;;5123452;27;20035;-73
2024/02/03 10:50:55;;;;;;;10.73;6.28;;;;;;;;;;5122515;27;20463;-73
2024/02/03 10:53:47;;;;;;;7.75;5.95;;;;;;;;;;5123796;27;20054;-74
2024/02/03 10:56:19;;;;;;;11.25;6.22;;;;;;;;;;5122739;27;20050;-72
2024/02/03 10:58:50;;;;;;;8.95;6.60;;;;;;;;;;5122881;27;20383;-72
2024/02/03 11:01:21;;;;;;;10.90;6.63;;;;;;;;;;5123208;27;20410;-74
2024/02/03 11:03:53;;;;;;;13.90;5.80;;;;;;;;;;5123966;27;20383;-73
2024/02/03 11:06:33;;;;;;;10.95;5.15;;;;;;;;;;5123199;27;20489;-74
2024/02/03 11:09:20;;;;;;;8.98;5.43;;;;;;;;;;5122967;27;20886;-74
2024/02/03 11:11:53;;;;;;;19.23;4.90;;;;;;;;;;5122619;27;20523;-77
2024/02/03 11:14:27;;;;;;;9.40;5.22;;;;;;;;;;5123400;27;20051;-74
2024/02/03 11:17:05;;;;;;;15.18;5.53;;;;;;;;;;5122851;27;20054;-74
2024/02/03 11:19:37;;;;;;;5.25;3.88;;;;;;;;;;5123168;27;20035;-74
2024/02/03 11:22:09;;;;;;;8.93;4.68;;;;;;;;;;5122383;27;20428;-75
2024/02/03 11:24:39;;;;;;;11.57;4.22;;;;;;;;;;5123324;27;20042;-75
2024/02/03 11:27:10;;;;;;;7.03;4.20;;;;;;;;;;5123005;28;20047;-75
2024/02/03 11:29:40;;;;;;;8.05;3.80;;;;;;;;;;5122597;28;20047;-79
2024/02/03 11:32:14;;;;;;;6.63;4.13;;;;;;;;;;5122530;28;20043;-75
2024/02/03 11:34:45;;;;;;;9.15;4.38;;;;;;;;;;5122618;28;20608;-75
2024/02/03 11:37:16;;;;;;;7.22;3.65;;;;;;;;;;5122814;28;20043;-75
2024/02/03 11:39:48;;;;;;;5.47;3.38;;;;;;;;;;5122435;28;20047;-75
2024/02/03 11:42:22;;;;;;;6.28;3.45;;;;;;;;;;5123239;28;20058;-79
2024/02/03 11:44:59;;;;;;;4.97;3.25;;;;;;;;;;5122513;28;20047;-75
2024/02/03 11:47:33;;;;;;;5.85;3.90;;;;;;;;;;5122853;28;20054;-74
2024/02/03 11:50:04;;;;;;;4.63;3.40;;;;;;;;;;5123548;28;20043;-74
2024/02/03 11:52:35;;;;;;;5.15;3.75;;;;;;;;;;5123395;28;20039;-76
2024/02/03 11:55:08;;;;;;;6.55;3.65;;;;;;;;;;5122992;28;20043;-83
2024/02/03 11:57:38;;;;;;;7.60;3.65;;;;;;;;;;5122201;28;20054;-74
2024/02/03 12:00:09;;;;;;;7.22;4.28;;;;;;;;;;5122376;28;20097;-74
2024/02/03 12:02:41;;;;;;;7.72;3.67;;;;;;;;;;5122668;28;20047;-74
2024/02/03 12:05:13;;;;;;;5.28;3.30;;;;;;;;;;5122532;28;20047;-74
2024/02/03 12:07:45;;;;;;;6.75;3.38;;;;;;;;;;5122563;28;20058;-75
2024/02/03 12:10:15;;;;;;;4.30;2.90;;;;;;;;;;5122386;28;20035;-76
2024/02/03 12:12:46;;;;;;;6.35;3.45;;;;;;;;;;5122581;28;20050;-74
2024/02/03 12:15:18;;;;;;;7.53;3.47;;;;;;;;;;5122541;28;20051;-75
2024/02/03 12:17:49;;;;;;;5.68;3.80;;;;;;;;;;5122186;28;20051;-74
2024/02/03 12:20:22;;;;;;;5.38;3.28;;;;;;;;;;5123152;28;20512;-75
2024/02/03 12:22:56;;;;;;;6.63;3.75;;;;;;;;;;5121375;27;20417;-74
2024/02/03 12:25:27;;;;;;;5.05;2.97;;;;;;;;;;5123911;28;20031;-75
2024/02/03 12:27:58;;;;;;;4.95;3.00;;;;;;;;;;5120299;28;20055;-77
2024/02/03 12:30:35;;;;;;;5.30;3.13;;;;;;;;;;5122262;28;20074;-75
2024/02/03 12:33:07;;;;;;;5.68;2.65;;;;;;;;;;5123744;27;20043;-74
2024/02/03 12:35:38;;;;;;;5.18;2.90;;;;;;;;;;5125716;27;20069;-74
2024/02/03 12:38:09;;;;;;;5.40;2.58;;;;;;;;;;5125556;27;20034;-75
2024/02/03 12:40:39;;;;;;;3.85;2.70;;;;;;;;;;5125918;27;20078;-75
2024/02/03 12:43:10;;;;;;;2.90;2.60;;;;;;;;;;5123156;27;20051;-74
2024/02/03 12:45:41;;;;;;;5.25;2.78;;;;;;;;;;5123988;27;20445;-74
2024/02/03 12:48:13;;;;;;;4.43;2.38;;;;;;;;;;5125960;27;20596;-75
2024/02/03 12:50:44;;;;;;;4.88;2.40;;;;;;;;;;5126025;27;20047;-74
2024/02/03 12:53:15;;;;;;;6.38;2.40;;;;;;;;;;5125497;27;20039;-76
2024/02/03 12:55:46;;;;;;;3.13;1.98;;;;;;;;;;5125710;27;20055;-75
2024/02/03 12:58:16;;;;;;;3.70;1.88;;;;;;;;;;5124053;27;20078;-74
2024/02/03 13:00:47;;;;;;;3.90;2.13;;;;;;;;;;5125252;27;20035;-74
2024/02/03 13:03:17;;;;;;;3.40;2.00;;;;;;;;;;5126269;27;20035;-74
2024/02/03 13:05:48;;;;;;;4.10;1.80;;;;;;;;;;5125390;27;20505;-85
2024/02/03 13:08:19;;;;;;;3.97;2.05;;;;;;;;;;5124535;27;20039;-84
2024/02/03 13:10:49;;;;;;;2.45;2.03;;;;;;;;;;5125133;27;20620;-75
2024/02/03 13:13:21;;;;;;;4.53;2.15;;;;;;;;;;5124878;27;20047;-74
2024/02/03 13:15:51;;;;;;;10.32;2.10;;;;;;;;;;5124850;27;20043;-74
2024/02/03 13:18:22;;;;;;;4.88;2.03;;;;;;;;;;5125100;27;20039;-74
2024/02/03 13:20:52;;;;;;;3.92;2.00;;;;;;;;;;5125043;27;20801;-75
2024/02/03 13:23:23;;;;;;;4.22;2.10;;;;;;;;;;5125009;27;20047;-79
2024/02/03 13:25:54;;;;;;;7.40;5.03;;;;;;;;;;5125709;27;20058;-75
2024/02/03 13:28:25;;;;;;;2.83;2.13;;;;;;;;;;5125564;27;20039;-75
2024/02/03 13:30:56;;;;;;;4.25;1.88;;;;;;;;;;5124686;27;20039;-79
2024/02/03 13:33:26;;;;;;;3.80;2.00;;;;;;;;;;5124788;27;20669;-75
2024/02/03 13:35:58;;;;;;;3.67;1.98;;;;;;;;;;5124876;27;20047;-74
2024/02/03 13:38:28;;;;;;;3.80;1.90;;;;;;;;;;5125143;27;20057;-74
2024/02/03 13:41:00;;;;;;;5.95;1.98;;;;;;;;;;5125699;27;20051;-76
2024/02/03 13:43:31;;;;;;;5.32;2.30;;;;;;;;;;5124809;27;20403;-75
2024/02/03 13:46:01;;;;;;;2.65;1.85;;;;;;;;;;5123858;27;20509;-73
2024/02/03 13:48:35;;;;;;;6.20;1.73;;;;;;;;;;5125157;27;20039;-75
2024/02/03 13:51:07;;;;;;;6.40;2.75;;;;;;;;;;5124070;27;20047;-74
2024/02/03 13:53:37;;;;;;;4.60;2.17;;;;;;;;;;5122096;27;20055;-75
2024/02/03 13:56:08;;;;;;;3.38;1.70;;;;;;;;;;5124118;27;20039;-75
2024/02/03 13:58:39;;;;;;;8.98;2.30;;;;;;;;;;5124013;27;20533;-74
2024/02/03 14:01:10;;;;;;;4.07;2.58;;;;;;;;;;5124162;27;20039;-74
2024/02/03 14:03:40;;;;;;;7.28;2.17;;;;;;;;;;5124033;27;20035;-74
2024/02/03 14:06:11;;;;;;;3.63;1.88;;;;;;;;;;5122854;27;20536;-75
2024/02/03 14:08:42;;;;;;;3.40;1.70;;;;;;;;;;5124508;27;20045;-76
2024/02/03 14:11:14;;;;;;;2.42;1.65;;;;;;;;;;5123858;27;20046;-75
2024/02/03 14:13:45;;;;;;;4.15;2.20;;;;;;;;;;5124654;27;20689;-74
2024/02/03 14:16:16;;;;;;;4.15;1.70;;;;;;;;;;5124359;27;20047;-75
2024/02/03 14:18:49;;;;;;;4.78;1.73;;;;;;;;;;5125245;27;20531;-75
2024/02/03 14:21:20;;;;;;;3.80;2.00;;;;;;;;;;5123880;27;20043;-74
2024/02/03 14:23:50;;;;;;;3.28;2.13;;;;;;;;;;5123903;27;20047;-75
2024/02/03 14:26:25;;;;;;;5.43;1.70;;;;;;;;;;5123714;27;20070;-75
2024/02/03 14:28:56;;;;;;;3.88;1.90;;;;;;;;;;5123197;27;20047;-74
2024/02/03 14:31:27;;;;;;;4.40;1.88;;;;;;;;;;5122591;27;20050;-73
2024/02/03 14:33:57;;;;;;;3.70;1.92;;;;;;;;;;5122255;27;20055;-75
2024/02/03 14:36:28;;;;;;;5.25;3.20;;;;;;;;;;5123835;27;20544;-77
2024/02/03 14:39:00;;;;;;;4.80;2.08;;;;;;;;;;5122935;27;20421;-74
2024/02/03 14:41:31;;;;;;;5.72;1.90;;;;;;;;;;5123404;27;20055;-75
2024/02/03 14:44:01;;;;;;;4.45;2.15;;;;;;;;;;5123713;27;20070;-75
2024/02/03 14:46:34;;;;;;;4.07;1.83;;;;;;;;;;5124165;27;20039;-74
2024/02/03 14:49:06;;;;;;;4.13;1.90;;;;;;;;;;5123999;27;20057;-74
2024/02/03 14:51:37;;;;;;;4.05;2.08;;;;;;;;;;5123806;27;20043;-76
2024/02/03 14:54:09;;;;;;;3.90;2.08;;;;;;;;;;5123597;27;20410;-77
2024/02/03 14:56:40;;;;;;;4.15;1.70;;;;;;;;;;5121212;27;20065;-72
2024/02/03 14:59:11;;;;;;;5.63;2.30;;;;;;;;;;5123076;27;20053;-73
2024/02/03 15:01:41;;;;;;;5.95;1.90;;;;;;;;;;5121457;27;20626;-73
2024/02/03 15:04:12;;;;;;;3.97;1.98;;;;;;;;;;5122832;27;20054;-76
2024/02/03 15:06:42;;;;;;;2.70;1.90;;;;;;;;;;5122853;27;20047;-73